sensor_id;sensor_type;location;lat;lon;timestamp;temperature;humidity
20803;DHT22;10562;-33.856;151.182;2023-02-28T00:02:07;24.90;99.90
20803;DHT22;10562;-33.856;151.182;2023-02-28T00:04:40;24.90;99.90
20803;DHT22;10562;-33.856;151.182;2023-02-28T00:07:11;24.90;99.90
20803;DHT22;10562;-33.856;151.182;2023-02-28T00:09:41;25.00;99.90
20803;DHT22;10562;-33.856;151.182;2023-02-28T00:12:12;25.00;99.90
20803;DHT22;10562;-33.856;151.182;2023-02-28T00:14:43;24.90;99.90
20803;DHT22;10562;-33.856;151.182;2023-02-28T00:17:14;24.90;99.90
20803;DHT22;10562;-33.856;151.182;2023-02-28T00:19:47;24.70;99.90
20803;DHT22;10562;-33.856;151.182;2023-02-28T00:22:19;24.60;99.90
20803;DHT22;10562;-33.856;151.182;2023-02-28T00:24:49;24.50;99.90
20803;DHT22;10562;-33.856;151.182;2023-02-28T00:27:20;24.60;99.90
20803;DHT22;10562;-33.856;151.182;2023-02-28T00:29:51;24.70;99.90
20803;DHT22;10562;-33.856;151.182;2023-02-28T00:32:22;24.60;99.90
20803;DHT22;10562;-33.856;151.182;2023-02-28T00:34:54;24.70;99.90
20803;DHT22;10562;-33.856;151.182;2023-02-28T00:37:25;24.80;99.90
20803;DHT22;10562;-33.856;151.182;2023-02-28T00:39:56;24.90;99.90
20803;DHT22;10562;-33.856;151.182;2023-02-28T00:42:27;25.00;99.90
20803;DHT22;10562;-33.856;151.182;2023-02-28T00:44:58;25.10;99.90
20803;DHT22;10562;-33.856;151.182;2023-02-28T00:47:29;25.20;99.90
20803;DHT22;10562;-33.856;151.182;2023-02-28T00:50:02;25.40;99.90
20803;DHT22;10562;-33.856;151.182;2023-02-28T00:52:33;25.70;99.90
20803;DHT22;10562;-33.856;151.182;2023-02-28T00:55:04;26.00;99.90
20803;DHT22;10562;-33.856;151.182;2023-02-28T00:57:34;26.20;99.90
20803;DHT22;10562;-33.856;151.182;2023-02-28T01:00:06;26.40;99.90
20803;DHT22;10562;-33.856;151.182;2023-02-28T01:02:37;26.50;99.90
20803;DHT22;10562;-33.856;151.182;2023-02-28T01:05:10;26.70;99.90
20803;DHT22;10562;-33.856;151.182;2023-02-28T01:07:41;26.90;99.90
20803;DHT22;10562;-33.856;151.182;2023-02-28T01:10:12;27.10;99.90
20803;DHT22;10562;-33.856;151.182;2023-02-28T01:12:43;27.20;99.90
20803;DHT22;10562;-33.856;151.182;2023-02-28T01:15:14;27.30;99.90
20803;DHT22;10562;-33.856;151.182;2023-02-28T01:17:44;27.40;99.90
20803;DHT22;10562;-33.856;151.182;2023-02-28T01:20:17;27.40;99.90
20803;DHT22;10562;-33.856;151.182;2023-02-28T01:22:48;27.50;99.90
20803;DHT22;10562;-33.856;151.182;2023-02-28T01:25:19;27.70;99.90
20803;DHT22;10562;-33.856;151.182;2023-02-28T01:27:49;27.80;99.90
20803;DHT22;10562;-33.856;151.182;2023-02-28T01:30:20;27.90;99.90
20803;DHT22;10562;-33.856;151.182;2023-02-28T01:32:51;28.00;99.90
20803;DHT22;10562;-33.856;151.182;2023-02-28T01:35:25;27.90;99.90
20803;DHT22;10562;-33.856;151.182;2023-02-28T01:37:55;27.90;99.90
20803;DHT22;10562;-33.856;151.182;2023-02-28T01:40:26;27.70;99.90
20803;DHT22;10562;-33.856;151.182;2023-02-28T01:42:57;27.80;99.90
20803;DHT22;10562;-33.856;151.182;2023-02-28T01:45:29;27.70;99.90
20803;DHT22;10562;-33.856;151.182;2023-02-28T01:48:03;27.30;99.90
20803;DHT22;10562;-33.856;151.182;2023-02-28T01:50:41;27.30;99.90
20803;DHT22;10562;-33.856;151.182;2023-02-28T01:53:15;27.10;99.90
20803;DHT22;10562;-33.856;151.182;2023-02-28T01:55:48;27.20;99.90
20803;DHT22;10562;-33.856;151.182;2023-02-28T01:58:21;27.10;99.90
20803;DHT22;10562;-33.856;151.182;2023-02-28T02:00:52;27.10;99.90
20803;DHT22;10562;-33.856;151.182;2023-02-28T02:03:23;27.00;99.90
20803;DHT22;10562;-33.856;151.182;2023-02-28T02:05:56;27.10;99.90
20803;DHT22;10562;-33.856;151.182;2023-02-28T02:08:29;27.10;99.90
20803;DHT22;10562;-33.856;151.182;2023-02-28T02:11:01;27.10;99.90
20803;DHT22;10562;-33.856;151.182;2023-02-28T02:13:48;27.00;99.90
20803;DHT22;10562;-33.856;151.182;2023-02-28T02:16:34;26.90;99.90
20803;DHT22;10562;-33.856;151.182;2023-02-28T02:19:19;26.80;99.90
20803;DHT22;10562;-33.856;151.182;2023-02-28T02:22:19;26.90;99.90
20803;DHT22;10562;-33.856;151.182;2023-02-28T02:25:16;26.80;99.90
20803;DHT22;10562;-33.856;151.182;2023-02-28T02:28:18;26.90;99.90
20803;DHT22;10562;-33.856;151.182;2023-02-28T02:31:28;27.10;99.90
20803;DHT22;10562;-33.856;151.182;2023-02-28T02:37:28;26.80;99.90
20803;DHT22;10562;-33.856;151.182;2023-02-28T02:40:07;27.00;99.90
20803;DHT22;10562;-33.856;151.182;2023-02-28T02:42:44;27.00;99.90
20803;DHT22;10562;-33.856;151.182;2023-02-28T02:45:21;27.20;99.90
20803;DHT22;10562;-33.856;151.182;2023-02-28T02:47:55;27.40;99.90
20803;DHT22;10562;-33.856;151.182;2023-02-28T02:50:33;27.50;99.90
20803;DHT22;10562;-33.856;151.182;2023-02-28T02:53:06;27.80;99.90
20803;DHT22;10562;-33.856;151.182;2023-02-28T02:55:41;28.40;99.90
20803;DHT22;10562;-33.856;151.182;2023-02-28T02:58:16;28.60;99.90
20803;DHT22;10562;-33.856;151.182;2023-02-28T03:00:52;28.60;99.90
20803;DHT22;10562;-33.856;151.182;2023-02-28T03:03:24;28.90;99.90
20803;DHT22;10562;-33.856;151.182;2023-02-28T03:06:01;28.80;99.90
20803;DHT22;10562;-33.856;151.182;2023-02-28T03:08:36;28.60;99.90
20803;DHT22;10562;-33.856;151.182;2023-02-28T03:11:11;28.50;99.90
20803;DHT22;10562;-33.856;151.182;2023-02-28T03:14:11;28.70;99.90
20803;DHT22;10562;-33.856;151.182;2023-02-28T03:19:54;28.80;99.90
20803;DHT22;10562;-33.856;151.182;2023-02-28T03:22:41;29.00;99.90
20803;DHT22;10562;-33.856;151.182;2023-02-28T03:25:21;29.10;99.90
20803;DHT22;10562;-33.856;151.182;2023-02-28T03:28:02;29.20;99.90
20803;DHT22;10562;-33.856;151.182;2023-02-28T03:30:39;29.40;99.90
20803;DHT22;10562;-33.856;151.182;2023-02-28T03:33:15;29.40;99.90
20803;DHT22;10562;-33.856;151.182;2023-02-28T03:35:49;29.30;99.90
20803;DHT22;10562;-33.856;151.182;2023-02-28T03:38:28;29.40;99.90
20803;DHT22;10562;-33.856;151.182;2023-02-28T03:41:06;29.40;99.90
20803;DHT22;10562;-33.856;151.182;2023-02-28T03:43:42;29.50;99.90
20803;DHT22;10562;-33.856;151.182;2023-02-28T03:46:17;29.40;99.90
20803;DHT22;10562;-33.856;151.182;2023-02-28T03:48:53;29.40;99.90
20803;DHT22;10562;-33.856;151.182;2023-02-28T03:51:27;29.50;99.90
20803;DHT22;10562;-33.856;151.182;2023-02-28T03:54:06;29.50;99.90
20803;DHT22;10562;-33.856;151.182;2023-02-28T03:56:41;29.60;99.90
20803;DHT22;10562;-33.856;151.182;2023-02-28T03:59:17;29.60;99.90
20803;DHT22;10562;-33.856;151.182;2023-02-28T04:01:49;29.50;99.90
20803;DHT22;10562;-33.856;151.182;2023-02-28T04:04:20;29.60;99.90
20803;DHT22;10562;-33.856;151.182;2023-02-28T04:06:52;29.50;99.90
20803;DHT22;10562;-33.856;151.182;2023-02-28T04:09:25;29.40;99.90
20803;DHT22;10562;-33.856;151.182;2023-02-28T04:11:56;29.20;99.90
20803;DHT22;10562;-33.856;151.182;2023-02-28T04:14:27;29.10;99.90
20803;DHT22;10562;-33.856;151.182;2023-02-28T04:16:57;29.30;99.90
20803;DHT22;10562;-33.856;151.182;2023-02-28T04:19:28;29.40;99.90
20803;DHT22;10562;-33.856;151.182;2023-02-28T04:21:59;29.40;99.90
20803;DHT22;10562;-33.856;151.182;2023-02-28T04:24:32;29.50;99.90
20803;DHT22;10562;-33.856;151.182;2023-02-28T04:27:03;29.20;99.90
20803;DHT22;10562;-33.856;151.182;2023-02-28T04:29:33;29.40;99.90
20803;DHT22;10562;-33.856;151.182;2023-02-28T04:32:04;29.30;99.90
20803;DHT22;10562;-33.856;151.182;2023-02-28T04:34:35;29.40;99.90
20803;DHT22;10562;-33.856;151.182;2023-02-28T04:37:06;29.40;99.90
20803;DHT22;10562;-33.856;151.182;2023-02-28T04:39:39;29.30;99.90
20803;DHT22;10562;-33.856;151.182;2023-02-28T04:42:10;29.40;99.90
20803;DHT22;10562;-33.856;151.182;2023-02-28T04:44:41;29.40;99.90
20803;DHT22;10562;-33.856;151.182;2023-02-28T04:47:12;29.40;99.90
20803;DHT22;10562;-33.856;151.182;2023-02-28T04:49:43;29.20;99.90
20803;DHT22;10562;-33.856;151.182;2023-02-28T04:52:14;29.40;99.90
20803;DHT22;10562;-33.856;151.182;2023-02-28T04:54:47;29.30;99.90
20803;DHT22;10562;-33.856;151.182;2023-02-28T04:57:17;29.00;99.90
20803;DHT22;10562;-33.856;151.182;2023-02-28T04:59:48;29.10;99.90
20803;DHT22;10562;-33.856;151.182;2023-02-28T05:02:19;29.20;99.90
20803;DHT22;10562;-33.856;151.182;2023-02-28T05:04:51;28.80;99.90
20803;DHT22;10562;-33.856;151.182;2023-02-28T05:07:22;28.90;99.90
20803;DHT22;10562;-33.856;151.182;2023-02-28T05:09:54;28.90;99.90
20803;DHT22;10562;-33.856;151.182;2023-02-28T05:12:25;29.00;99.90
20803;DHT22;10562;-33.856;151.182;2023-02-28T05:14:56;29.20;99.90
20803;DHT22;10562;-33.856;151.182;2023-02-28T05:17:27;29.40;99.90
20803;DHT22;10562;-33.856;151.182;2023-02-28T05:19:58;29.60;99.90
20803;DHT22;10562;-33.856;151.182;2023-02-28T05:22:28;29.30;99.90
20803;DHT22;10562;-33.856;151.182;2023-02-28T05:25:01;28.70;99.90
20803;DHT22;10562;-33.856;151.182;2023-02-28T05:27:32;28.50;99.90
20803;DHT22;10562;-33.856;151.182;2023-02-28T05:30:03;28.50;99.90
20803;DHT22;10562;-33.856;151.182;2023-02-28T05:32:34;28.50;99.90
20803;DHT22;10562;-33.856;151.182;2023-02-28T05:35:17;28.30;99.90
20803;DHT22;10562;-33.856;151.182;2023-02-28T05:37:48;28.20;99.90
20803;DHT22;10562;-33.856;151.182;2023-02-28T05:40:21;28.20;99.90
20803;DHT22;10562;-33.856;151.182;2023-02-28T05:42:52;28.00;99.90
20803;DHT22;10562;-33.856;151.182;2023-02-28T05:45:23;27.70;99.90
20803;DHT22;10562;-33.856;151.182;2023-02-28T05:47:55;27.80;99.90
20803;DHT22;10562;-33.856;151.182;2023-02-28T05:50:25;28.00;99.90
20803;DHT22;10562;-33.856;151.182;2023-02-28T05:52:56;28.10;99.90
20803;DHT22;10562;-33.856;151.182;2023-02-28T05:55:29;28.80;99.90
20803;DHT22;10562;-33.856;151.182;2023-02-28T05:58:00;28.90;99.90
20803;DHT22;10562;-33.856;151.182;2023-02-28T06:00:30;28.80;99.90
20803;DHT22;10562;-33.856;151.182;2023-02-28T06:03:01;28.90;99.90
20803;DHT22;10562;-33.856;151.182;2023-02-28T06:05:32;29.10;99.90
20803;DHT22;10562;-33.856;151.182;2023-02-28T06:08:03;29.10;99.90
20803;DHT22;10562;-33.856;151.182;2023-02-28T06:10:36;28.70;99.90
20803;DHT22;10562;-33.856;151.182;2023-02-28T06:13:07;28.60;99.90
20803;DHT22;10562;-33.856;151.182;2023-02-28T06:15:38;28.30;99.90
20803;DHT22;10562;-33.856;151.182;2023-02-28T06:18:09;28.30;99.90
20803;DHT22;10562;-33.856;151.182;2023-02-28T06:20:40;28.30;99.90
20803;DHT22;10562;-33.856;151.182;2023-02-28T06:23:11;28.20;99.90
20803;DHT22;10562;-33.856;151.182;2023-02-28T06:25:45;28.00;99.90
20803;DHT22;10562;-33.856;151.182;2023-02-28T06:28:17;28.20;99.90
20803;DHT22;10562;-33.856;151.182;2023-02-28T06:30:48;28.40;99.90
20803;DHT22;10562;-33.856;151.182;2023-02-28T06:33:19;28.50;99.90
20803;DHT22;10562;-33.856;151.182;2023-02-28T06:35:52;28.40;99.90
20803;DHT22;10562;-33.856;151.182;2023-02-28T06:38:23;28.10;99.90
20803;DHT22;10562;-33.856;151.182;2023-02-28T06:40:59;27.80;99.90
20803;DHT22;10562;-33.856;151.182;2023-02-28T06:43:32;27.30;99.90
20803;DHT22;10562;-33.856;151.182;2023-02-28T06:46:04;27.10;99.90
20803;DHT22;10562;-33.856;151.182;2023-02-28T06:48:36;26.90;99.90
20803;DHT22;10562;-33.856;151.182;2023-02-28T06:51:08;26.80;99.90
20803;DHT22;10562;-33.856;151.182;2023-02-28T06:53:39;26.70;99.90
20803;DHT22;10562;-33.856;151.182;2023-02-28T06:56:13;26.50;99.90
20803;DHT22;10562;-33.856;151.182;2023-02-28T06:58:47;26.40;99.90
20803;DHT22;10562;-33.856;151.182;2023-02-28T07:01:18;26.20;99.90
20803;DHT22;10562;-33.856;151.182;2023-02-28T07:03:50;26.00;99.90
20803;DHT22;10562;-33.856;151.182;2023-02-28T07:06:22;25.90;99.90
20803;DHT22;10562;-33.856;151.182;2023-02-28T07:08:56;25.90;99.90
20803;DHT22;10562;-33.856;151.182;2023-02-28T07:11:30;25.90;99.90
20803;DHT22;10562;-33.856;151.182;2023-02-28T07:14:01;25.90;99.90
20803;DHT22;10562;-33.856;151.182;2023-02-28T07:16:31;25.90;99.90
20803;DHT22;10562;-33.856;151.182;2023-02-28T07:19:02;26.00;99.90
20803;DHT22;10562;-33.856;151.182;2023-02-28T07:21:33;25.80;99.90
20803;DHT22;10562;-33.856;151.182;2023-02-28T07:24:04;25.80;99.90
20803;DHT22;10562;-33.856;151.182;2023-02-28T07:26:36;25.80;99.90
20803;DHT22;10562;-33.856;151.182;2023-02-28T07:29:07;25.70;99.90
20803;DHT22;10562;-33.856;151.182;2023-02-28T07:31:38;25.50;99.90
20803;DHT22;10562;-33.856;151.182;2023-02-28T07:34:09;25.40;99.90
20803;DHT22;10562;-33.856;151.182;2023-02-28T07:36:40;25.30;99.90
20803;DHT22;10562;-33.856;151.182;2023-02-28T07:39:11;25.20;99.90
20803;DHT22;10562;-33.856;151.182;2023-02-28T07:41:43;25.10;99.90
20803;DHT22;10562;-33.856;151.182;2023-02-28T07:44:14;24.90;99.90
20803;DHT22;10562;-33.856;151.182;2023-02-28T07:46:45;24.80;99.90
20803;DHT22;10562;-33.856;151.182;2023-02-28T07:49:16;24.80;99.90
20803;DHT22;10562;-33.856;151.182;2023-02-28T07:51:46;24.70;99.90
20803;DHT22;10562;-33.856;151.182;2023-02-28T07:54:17;24.70;99.90
20803;DHT22;10562;-33.856;151.182;2023-02-28T07:56:50;24.60;99.90
20803;DHT22;10562;-33.856;151.182;2023-02-28T07:59:21;24.50;99.90
20803;DHT22;10562;-33.856;151.182;2023-02-28T08:01:51;24.50;99.90
20803;DHT22;10562;-33.856;151.182;2023-02-28T08:04:22;24.50;99.90
20803;DHT22;10562;-33.856;151.182;2023-02-28T08:06:53;24.50;99.90
20803;DHT22;10562;-33.856;151.182;2023-02-28T08:09:24;24.40;99.90
20803;DHT22;10562;-33.856;151.182;2023-02-28T08:11:57;24.40;99.90
20803;DHT22;10562;-33.856;151.182;2023-02-28T08:14:28;24.30;99.90
20803;DHT22;10562;-33.856;151.182;2023-02-28T08:16:59;24.30;99.90
20803;DHT22;10562;-33.856;151.182;2023-02-28T08:19:30;24.20;99.90
20803;DHT22;10562;-33.856;151.182;2023-02-28T08:22:00;24.10;99.90
20803;DHT22;10562;-33.856;151.182;2023-02-28T08:24:31;24.10;99.90
20803;DHT22;10562;-33.856;151.182;2023-02-28T08:27:04;24.00;99.90
20803;DHT22;10562;-33.856;151.182;2023-02-28T08:29:36;24.00;99.90
20803;DHT22;10562;-33.856;151.182;2023-02-28T08:32:07;23.90;99.90
20803;DHT22;10562;-33.856;151.182;2023-02-28T08:34:40;23.90;99.90
20803;DHT22;10562;-33.856;151.182;2023-02-28T08:37:10;23.90;99.90
20803;DHT22;10562;-33.856;151.182;2023-02-28T08:39:41;23.90;99.90
20803;DHT22;10562;-33.856;151.182;2023-02-28T08:42:14;23.80;99.90
20803;DHT22;10562;-33.856;151.182;2023-02-28T08:44:45;23.80;99.90
20803;DHT22;10562;-33.856;151.182;2023-02-28T08:47:16;23.70;99.90
20803;DHT22;10562;-33.856;151.182;2023-02-28T08:49:46;23.70;99.90
20803;DHT22;10562;-33.856;151.182;2023-02-28T08:52:18;23.60;99.90
20803;DHT22;10562;-33.856;151.182;2023-02-28T08:54:49;23.60;99.90
20803;DHT22;10562;-33.856;151.182;2023-02-28T08:57:22;23.60;99.90
20803;DHT22;10562;-33.856;151.182;2023-02-28T08:59:54;23.70;99.90
20803;DHT22;10562;-33.856;151.182;2023-02-28T09:02:25;23.60;99.90
20803;DHT22;10562;-33.856;151.182;2023-02-28T09:04:55;23.50;99.90
20803;DHT22;10562;-33.856;151.182;2023-02-28T09:07:27;23.50;99.90
20803;DHT22;10562;-33.856;151.182;2023-02-28T09:09:58;23.50;99.90
20803;DHT22;10562;-33.856;151.182;2023-02-28T09:12:34;23.50;99.90
20803;DHT22;10562;-33.856;151.182;2023-02-28T09:15:05;23.40;99.90
20803;DHT22;10562;-33.856;151.182;2023-02-28T09:17:36;23.40;99.90
20803;DHT22;10562;-33.856;151.182;2023-02-28T09:20:08;23.40;99.90
20803;DHT22;10562;-33.856;151.182;2023-02-28T09:22:39;23.40;99.90
20803;DHT22;10562;-33.856;151.182;2023-02-28T09:25:10;23.40;99.90
20803;DHT22;10562;-33.856;151.182;2023-02-28T09:27:42;23.40;99.90
20803;DHT22;10562;-33.856;151.182;2023-02-28T09:30:14;23.40;99.90
20803;DHT22;10562;-33.856;151.182;2023-02-28T09:32:45;23.40;99.90
20803;DHT22;10562;-33.856;151.182;2023-02-28T09:35:19;23.40;99.90
20803;DHT22;10562;-33.856;151.182;2023-02-28T09:37:51;23.30;99.90
20803;DHT22;10562;-33.856;151.182;2023-02-28T09:40:23;23.30;99.90
20803;DHT22;10562;-33.856;151.182;2023-02-28T09:42:57;23.30;99.90
20803;DHT22;10562;-33.856;151.182;2023-02-28T09:45:31;23.30;99.90
20803;DHT22;10562;-33.856;151.182;2023-02-28T09:48:09;23.30;99.90
20803;DHT22;10562;-33.856;151.182;2023-02-28T09:50:43;23.40;99.90
20803;DHT22;10562;-33.856;151.182;2023-02-28T09:53:21;23.50;99.90
20803;DHT22;10562;-33.856;151.182;2023-02-28T09:55:57;23.50;99.90
20803;DHT22;10562;-33.856;151.182;2023-02-28T09:58:34;23.60;99.90
20803;DHT22;10562;-33.856;151.182;2023-02-28T10:01:10;23.60;99.90
20803;DHT22;10562;-33.856;151.182;2023-02-28T10:03:45;23.70;99.90
20803;DHT22;10562;-33.856;151.182;2023-02-28T10:06:19;23.80;99.90
20803;DHT22;10562;-33.856;151.182;2023-02-28T10:08:58;23.80;99.90
20803;DHT22;10562;-33.856;151.182;2023-02-28T10:11:32;23.80;99.90
20803;DHT22;10562;-33.856;151.182;2023-02-28T10:14:12;23.80;99.90
20803;DHT22;10562;-33.856;151.182;2023-02-28T10:16:46;23.80;99.90
20803;DHT22;10562;-33.856;151.182;2023-02-28T10:19:23;23.80;99.90
20803;DHT22;10562;-33.856;151.182;2023-02-28T10:21:58;23.80;99.90
20803;DHT22;10562;-33.856;151.182;2023-02-28T10:24:33;23.80;99.90
20803;DHT22;10562;-33.856;151.182;2023-02-28T10:27:18;23.80;99.90
20803;DHT22;10562;-33.856;151.182;2023-02-28T10:29:53;23.80;99.90
20803;DHT22;10562;-33.856;151.182;2023-02-28T10:32:25;23.80;99.90
20803;DHT22;10562;-33.856;151.182;2023-02-28T10:34:59;23.80;99.90
20803;DHT22;10562;-33.856;151.182;2023-02-28T10:37:30;23.80;99.90
20803;DHT22;10562;-33.856;151.182;2023-02-28T10:40:07;23.80;99.90
20803;DHT22;10562;-33.856;151.182;2023-02-28T10:42:58;23.80;99.90
20803;DHT22;10562;-33.856;151.182;2023-02-28T10:45:32;23.80;99.90
20803;DHT22;10562;-33.856;151.182;2023-02-28T10:48:06;23.80;99.90
20803;DHT22;10562;-33.856;151.182;2023-02-28T10:50:55;23.80;99.90
20803;DHT22;10562;-33.856;151.182;2023-02-28T10:53:33;23.80;99.90
20803;DHT22;10562;-33.856;151.182;2023-02-28T10:56:05;23.80;99.90
20803;DHT22;10562;-33.856;151.182;2023-02-28T10:58:53;23.80;99.90
20803;DHT22;10562;-33.856;151.182;2023-02-28T11:01:36;23.80;99.90
20803;DHT22;10562;-33.856;151.182;2023-02-28T11:04:18;23.80;99.90
20803;DHT22;10562;-33.856;151.182;2023-02-28T11:06:56;23.80;99.90
20803;DHT22;10562;-33.856;151.182;2023-02-28T11:09:31;23.80;99.90
20803;DHT22;10562;-33.856;151.182;2023-02-28T11:12:06;23.80;99.90
20803;DHT22;10562;-33.856;151.182;2023-02-28T11:14:46;23.80;99.90
20803;DHT22;10562;-33.856;151.182;2023-02-28T11:17:23;23.80;99.90
20803;DHT22;10562;-33.856;151.182;2023-02-28T11:19:56;23.80;99.90
20803;DHT22;10562;-33.856;151.182;2023-02-28T11:22:33;23.80;99.90
20803;DHT22;10562;-33.856;151.182;2023-02-28T11:25:12;23.80;99.90
20803;DHT22;10562;-33.856;151.182;2023-02-28T11:27:51;23.80;99.90
20803;DHT22;10562;-33.856;151.182;2023-02-28T11:30:30;23.80;99.90
20803;DHT22;10562;-33.856;151.182;2023-02-28T11:33:23;23.80;99.90
20803;DHT22;10562;-33.856;151.182;2023-02-28T11:35:59;23.80;99.90
20803;DHT22;10562;-33.856;151.182;2023-02-28T11:38:32;23.80;99.90
20803;DHT22;10562;-33.856;151.182;2023-02-28T11:41:21;23.80;99.90
20803;DHT22;10562;-33.856;151.182;2023-02-28T11:44:09;23.80;99.90
20803;DHT22;10562;-33.856;151.182;2023-02-28T11:46:46;23.70;99.90
20803;DHT22;10562;-33.856;151.182;2023-02-28T11:49:35;23.70;99.90
20803;DHT22;10562;-33.856;151.182;2023-02-28T11:52:17;23.70;99.90
20803;DHT22;10562;-33.856;151.182;2023-02-28T11:54:59;23.60;99.90
20803;DHT22;10562;-33.856;151.182;2023-02-28T11:57:41;23.60;99.90
20803;DHT22;10562;-33.856;151.182;2023-02-28T12:00:29;23.60;99.90
20803;DHT22;10562;-33.856;151.182;2023-02-28T12:03:12;23.60;99.90
20803;DHT22;10562;-33.856;151.182;2023-02-28T12:05:53;23.60;99.90
20803;DHT22;10562;-33.856;151.182;2023-02-28T12:08:49;23.50;99.90
20803;DHT22;10562;-33.856;151.182;2023-02-28T12:11:32;23.40;99.90
20803;DHT22;10562;-33.856;151.182;2023-02-28T12:14:20;23.40;99.90
20803;DHT22;10562;-33.856;151.182;2023-02-28T12:17:01;23.30;99.90
20803;DHT22;10562;-33.856;151.182;2023-02-28T12:19:41;23.30;99.90
20803;DHT22;10562;-33.856;151.182;2023-02-28T12:22:28;23.20;99.90
20803;DHT22;10562;-33.856;151.182;2023-02-28T12:25:36;23.20;99.90
20803;DHT22;10562;-33.856;151.182;2023-02-28T12:28:13;23.30;99.90
20803;DHT22;10562;-33.856;151.182;2023-02-28T12:30:51;23.30;99.90
20803;DHT22;10562;-33.856;151.182;2023-02-28T12:33:28;23.20;99.90
20803;DHT22;10562;-33.856;151.182;2023-02-28T12:36:05;23.30;99.90
20803;DHT22;10562;-33.856;151.182;2023-02-28T12:38:43;23.30;99.90
20803;DHT22;10562;-33.856;151.182;2023-02-28T12:41:16;23.30;99.90
20803;DHT22;10562;-33.856;151.182;2023-02-28T12:43:52;23.40;99.90
20803;DHT22;10562;-33.856;151.182;2023-02-28T12:46:27;23.40;99.90
20803;DHT22;10562;-33.856;151.182;2023-02-28T12:49:04;23.40;99.90
20803;DHT22;10562;-33.856;151.182;2023-02-28T12:51:36;23.40;99.90
20803;DHT22;10562;-33.856;151.182;2023-02-28T12:54:16;23.50;99.90
20803;DHT22;10562;-33.856;151.182;2023-02-28T12:56:55;23.50;99.90
20803;DHT22;10562;-33.856;151.182;2023-02-28T12:59:30;23.50;99.90
20803;DHT22;10562;-33.856;151.182;2023-02-28T13:02:27;23.50;99.90
20803;DHT22;10562;-33.856;151.182;2023-02-28T13:05:21;23.50;99.90
20803;DHT22;10562;-33.856;151.182;2023-02-28T13:08:19;23.50;99.90
20803;DHT22;10562;-33.856;151.182;2023-02-28T13:10:55;23.50;99.90
20803;DHT22;10562;-33.856;151.182;2023-02-28T13:13:27;23.50;99.90
20803;DHT22;10562;-33.856;151.182;2023-02-28T13:16:03;23.50;99.90
20803;DHT22;10562;-33.856;151.182;2023-02-28T13:18:36;23.50;99.90
20803;DHT22;10562;-33.856;151.182;2023-02-28T13:21:08;23.60;99.90
20803;DHT22;10562;-33.856;151.182;2023-02-28T13:23:59;23.60;99.90
20803;DHT22;10562;-33.856;151.182;2023-02-28T13:29:38;23.60;99.90
20803;DHT22;10562;-33.856;151.182;2023-02-28T13:32:31;23.60;99.90
20803;DHT22;10562;-33.856;151.182;2023-02-28T13:38:34;23.60;99.90
20803;DHT22;10562;-33.856;151.182;2023-02-28T13:44:13;23.60;99.90
20803;DHT22;10562;-33.856;151.182;2023-02-28T13:49:52;23.60;99.90
20803;DHT22;10562;-33.856;151.182;2023-02-28T13:52:24;23.60;99.90
20803;DHT22;10562;-33.856;151.182;2023-02-28T13:55:19;23.60;99.90
20803;DHT22;10562;-33.856;151.182;2023-02-28T13:58:10;23.60;99.90
20803;DHT22;10562;-33.856;151.182;2023-02-28T14:04:12;23.60;99.90
20803;DHT22;10562;-33.856;151.182;2023-02-28T14:06:51;23.60;99.90
20803;DHT22;10562;-33.856;151.182;2023-02-28T14:09:27;23.60;99.90
20803;DHT22;10562;-33.856;151.182;2023-02-28T14:15:30;23.70;99.90
20803;DHT22;10562;-33.856;151.182;2023-02-28T14:18:03;23.80;99.90
20803;DHT22;10562;-33.856;151.182;2023-02-28T14:20:34;23.80;99.90
20803;DHT22;10562;-33.856;151.182;2023-02-28T14:23:12;23.80;99.90
20803;DHT22;10562;-33.856;151.182;2023-02-28T14:25:51;23.80;99.90
20803;DHT22;10562;-33.856;151.182;2023-02-28T14:28:36;23.80;99.90
20803;DHT22;10562;-33.856;151.182;2023-02-28T14:31:10;23.70;99.90
20803;DHT22;10562;-33.856;151.182;2023-02-28T14:33:57;23.70;99.90
20803;DHT22;10562;-33.856;151.182;2023-02-28T14:36:35;23.60;99.90
20803;DHT22;10562;-33.856;151.182;2023-02-28T14:39:11;23.60;99.90
20803;DHT22;10562;-33.856;151.182;2023-02-28T14:41:44;23.60;99.90
20803;DHT22;10562;-33.856;151.182;2023-02-28T14:44:17;23.70;99.90
20803;DHT22;10562;-33.856;151.182;2023-02-28T14:46:50;23.60;99.90
20803;DHT22;10562;-33.856;151.182;2023-02-28T14:49:49;23.60;99.90
20803;DHT22;10562;-33.856;151.182;2023-02-28T14:52:23;23.70;99.90
20803;DHT22;10562;-33.856;151.182;2023-02-28T14:54:58;23.70;99.90
20803;DHT22;10562;-33.856;151.182;2023-02-28T14:57:31;23.80;99.90
20803;DHT22;10562;-33.856;151.182;2023-02-28T15:00:03;23.80;99.90
20803;DHT22;10562;-33.856;151.182;2023-02-28T15:02:38;23.80;99.90
20803;DHT22;10562;-33.856;151.182;2023-02-28T15:05:24;23.80;99.90
20803;DHT22;10562;-33.856;151.182;2023-02-28T15:08:12;23.80;99.90
20803;DHT22;10562;-33.856;151.182;2023-02-28T15:10:49;23.80;99.90
20803;DHT22;10562;-33.856;151.182;2023-02-28T15:13:21;23.90;99.90
20803;DHT22;10562;-33.856;151.182;2023-02-28T15:15:55;23.90;99.90
20803;DHT22;10562;-33.856;151.182;2023-02-28T15:18:31;23.90;99.90
20803;DHT22;10562;-33.856;151.182;2023-02-28T15:21:05;23.90;99.90
20803;DHT22;10562;-33.856;151.182;2023-02-28T15:23:37;23.90;99.90
20803;DHT22;10562;-33.856;151.182;2023-02-28T15:26:14;23.90;99.90
20803;DHT22;10562;-33.856;151.182;2023-02-28T15:28:47;23.90;99.90
20803;DHT22;10562;-33.856;151.182;2023-02-28T15:31:26;23.90;99.90
20803;DHT22;10562;-33.856;151.182;2023-02-28T15:34:03;23.90;99.90
20803;DHT22;10562;-33.856;151.182;2023-02-28T15:36:34;23.90;99.90
20803;DHT22;10562;-33.856;151.182;2023-02-28T15:39:21;23.80;99.90
20803;DHT22;10562;-33.856;151.182;2023-02-28T15:44:38;23.70;99.90
20803;DHT22;10562;-33.856;151.182;2023-02-28T15:47:19;23.80;99.90
20803;DHT22;10562;-33.856;151.182;2023-02-28T15:49:52;23.80;99.90
20803;DHT22;10562;-33.856;151.182;2023-02-28T15:52:27;23.90;99.90
20803;DHT22;10562;-33.856;151.182;2023-02-28T15:54:59;23.80;99.90
20803;DHT22;10562;-33.856;151.182;2023-02-28T15:57:41;23.80;99.90
20803;DHT22;10562;-33.856;151.182;2023-02-28T16:00:15;23.60;99.90
20803;DHT22;10562;-33.856;151.182;2023-02-28T16:02:47;23.60;99.90
20803;DHT22;10562;-33.856;151.182;2023-02-28T16:05:23;23.60;99.90